Main page
METAR-TAF:

METAR-TAF

Airports :

Roi Et Airport

Roi Et, Thailand

latitude: 16-07-00N, longitude: 103-46-26E, elevation: 138 m

Current weather observation

The report was made 5 hours and 1 minutes ago, at 14:00 UTC
Wind 2 kt from the North/Northeast
Temperature 25°C
Humidity 74%
Pressure 1011 hPa
Visibility: 9000 m

METAR: VTUV 281400Z 03002KT 9000 NSC 25/20 Q1011 NOSIG

Time: 02:01 (19:01 UTC)

Forecast

The report was made 2 hours and 1 minutes ago, at 17:00 UTC
Forecast valid from 28 at 18 UTC to 29 at 18 UTC
Wind 5 kt from the North/Northeast
Visibility: 9000 m

TAF: VTUV 281700Z 2818/2918 03005KT 9000 NSC

Weather observations and forecasts of more than 4000 airports (METAR and TAF reports).

The available stations are represented by yellow and red dots on the map.

Hover mouse over dot to see the name of the station.

Then click to see weather observations and forecasts.

To change the map : click on the green buttons with a black cross to zoom in, on the green button with a dash to zoom out, or on the green arrows for adjacent maps.


METAR-TAF: